Bookmark and Share
Track history (hours):
 

Kine

Last reported at 2014-Apr-19 10:09 UTC. Time now 2014-Apr-19 12:06 UTC.
Position N 59°54' E 010°43'.

Length 89 m; draft 4.1 m.

Type: Cargo ship. MMSI: 311117000.

NotesDate/timePositionNaut miles runAvg speedWind from/ knotsBaromVisibWave heightAir tempDewpointWater temp
2014-Apr-19 10:09N 59°54' E 010°43'30 8.2
2014-Apr-19 06:31N 59°25' E 010°34'12 8.8
2014-Apr-19 05:07N 59°13' E 010°38'81 8.5
2014-Apr-18 19:33N 57°52' E 010°58'9 9.1
2014-Apr-18 18:33N 57°43' E 011°01'9 9.3
2014-Apr-18 17:33N 57°34' E 011°04'9 9.2
2014-Apr-18 16:33N 57°25' E 011°07'3 2.4
2014-Apr-18 15:28N 57°23' E 011°08'0 0.0
2014-Apr-18 14:28N 57°23' E 011°08'0 0.0
2014-Apr-18 13:28N 57°23' E 011°08'0 0.0
2014-Apr-18 12:22N 57°23' E 011°08'0 0.1
2014-Apr-18 11:25N 57°23' E 011°08'0 0.0
2014-Apr-18 10:25N 57°23' E 011°08'0 0.0
2014-Apr-18 09:25N 57°23' E 011°08'0 0.0
2014-Apr-18 08:31N 57°23' E 011°08'0 0.0
2014-Apr-18 07:31N 57°23' E 011°08'0 0.0
2014-Apr-18 06:22N 57°23' E 011°08'0 0.0
2014-Apr-18 05:31N 57°23' E 011°08'0 0.1
2014-Apr-18 04:22N 57°23' E 011°08'0 0.1
2014-Apr-18 03:22N 57°23' E 011°08'0 0.0
2014-Apr-18 02:31N 57°23' E 011°08'0 0.0
2014-Apr-18 00:28N 57°23' E 011°08'0 0.0
2014-Apr-17 23:25N 57°23' E 011°08'0 0.0
2014-Apr-17 16:28N 57°23' E 011°08'0 0.0
2014-Apr-17 15:25N 57°23' E 011°08'0 0.0
2014-Apr-17 14:28N 57°23' E 011°08'4 4.4
2014-Apr-17 13:33N 57°24' E 011°16'7 6.6
2014-Apr-17 12:33N 57°23' E 011°28'8 7.5
2014-Apr-17 11:34N 57°16' E 011°35'24 8.0
2014-Apr-17 08:34N 56°55' E 011°54'9 8.8
2014-Apr-17 07:33N 56°47' E 012°02'9 8.6
2014-Apr-17 06:33N 56°39' E 012°09'10 9.2
2014-Apr-17 05:29N 56°30' E 012°16'9 9.5
2014-Apr-17 04:33N 56°22' E 012°22'10 9.5
2014-Apr-17 03:33N 56°13' E 012°28'1010.0
2014-Apr-17 02:34N 56°05' E 012°37'1010.1
2014-Apr-17 01:34N 55°55' E 012°44'1010.2
2014-Apr-17 00:34N 55°45' E 012°42'1110.7
2014-Apr-16 23:34N 55°35' E 012°42'10 9.6
2014-Apr-16 22:33N 55°25' E 012°42'8 8.2
2014-Apr-16 21:33N 55°17' E 012°47'9 9.1
2014-Apr-16 20:34N 55°16' E 013°03'9 9.3
2014-Apr-16 19:34N 55°15' E 013°19'9 9.5
2014-Apr-16 18:34N 55°14' E 013°35'10 9.6
2014-Apr-16 17:33N 55°13' E 013°52'10 9.8
2014-Apr-16 16:33N 55°12' E 014°09'9 9.0
2014-Apr-16 15:33N 55°09' E 014°24'14 9.2
2014-Apr-16 14:03N 55°02' E 014°45'5 9.0
2014-Apr-16 13:29N 54°59' E 014°53'19 9.0
2014-Apr-16 11:21N 54°56' E 015°25'90 9.1
2014-Apr-16 01:33N 54°54' E 018°01'9 8.7
2014-Apr-16 00:33N 54°54' E 018°16'8 8.1
2014-Apr-15 23:33N 54°52' E 018°30'8 7.8
2014-Apr-15 22:34N 54°48' E 018°41'7 7.4
2014-Apr-15 21:34N 54°43' E 018°51'6 5.8
2014-Apr-15 20:33N 54°38' E 018°56'7 6.9
2014-Apr-15 19:34N 54°32' E 018°49'8 8.3
2014-Apr-15 18:34N 54°26' E 018°40'2 2.0
2014-Apr-15 17:33N 54°24' E 018°40'0 0.0
2014-Apr-15 16:34N 54°24' E 018°40'0 0.0
2014-Apr-15 15:33N 54°24' E 018°40'0 0.0
2014-Apr-15 14:33N 54°24' E 018°40'0 0.0
2014-Apr-15 12:34N 54°24' E 018°40'0 0.0
2014-Apr-15 11:34N 54°24' E 018°40'0 0.0
2014-Apr-15 10:34N 54°24' E 018°40'0 0.0
2014-Apr-15 09:34N 54°24' E 018°40'0 0.0
2014-Apr-15 08:34N 54°24' E 018°40'0 0.0
2014-Apr-15 07:34N 54°24' E 018°40'0 0.0
2014-Apr-15 06:34N 54°24' E 018°40'0 0.0
2014-Apr-15 05:34N 54°24' E 018°40'0 0.0
2014-Apr-15 03:34N 54°24' E 018°40'0 0.0
2014-Apr-15 02:34N 54°24' E 018°40'0 0.0
2014-Apr-15 01:34N 54°24' E 018°40'0 0.0
2014-Apr-15 00:34N 54°24' E 018°40'0 0.0
2014-Apr-14 23:34N 54°24' E 018°40'0 0.0
2014-Apr-14 22:34N 54°24' E 018°40'0 0.0
2014-Apr-14 21:34N 54°24' E 018°40'0 0.0
2014-Apr-14 20:34N 54°24' E 018°40'0 0.0
2014-Apr-14 19:34N 54°24' E 018°40'0 0.0
2014-Apr-14 18:34N 54°24' E 018°40'0 0.0
2014-Apr-14 17:34N 54°24' E 018°40'0 0.0
2014-Apr-14 16:34N 54°24' E 018°40'0 0.0
2014-Apr-14 15:34N 54°24' E 018°40'0 0.0
2014-Apr-14 14:34N 54°24' E 018°40'0 0.0
2014-Apr-14 13:34N 54°24' E 018°40'0 0.0
2014-Apr-14 11:33N 54°24' E 018°40'0 0.0
2014-Apr-14 10:34N 54°24' E 018°40'0 0.0
2014-Apr-14 09:33N 54°24' E 018°40'0 0.0
2014-Apr-14 08:33N 54°24' E 018°40'0 0.0
2014-Apr-14 07:34N 54°24' E 018°40'3 2.5
2014-Apr-14 06:33N 54°27' E 018°40'1 1.1
2014-Apr-14 05:32N 54°28' E 018°40'0 0.0
2014-Apr-13 22:32N 54°28' E 018°39'0 0.0
2014-Apr-13 21:32N 54°28' E 018°40'0 0.0
2014-Apr-13 20:32N 54°28' E 018°40'0 0.0
2014-Apr-13 19:32N 54°28' E 018°40'0 0.0
2014-Apr-13 18:32N 54°28' E 018°39'6 6.2
2014-Apr-13 17:33N 54°32' E 018°47'9 9.4
2014-Apr-13 16:33N 54°40' E 018°56'9 9.4
2014-Apr-13 15:33N 54°46' E 018°44'10 9.9
2014-Apr-13 14:33N 54°52' E 018°30'10 9.8
2014-Apr-13 13:33N 54°54' E 018°14'147 9.8
2014-Apr-12 22:30N 54°39' E 013°59'9 9.8
2014-Apr-12 21:33N 54°41' E 013°44'1010.4
2014-Apr-12 20:33N 54°43' E 013°26'1010.0
2014-Apr-12 19:33N 54°42' E 013°09'1010.1
2014-Apr-12 18:33N 54°41' E 012°51'10 9.9
2014-Apr-12 17:33N 54°37' E 012°35'1010.2
2014-Apr-12 16:33N 54°32' E 012°21'10 9.9
2014-Apr-12 15:33N 54°24' E 012°10'1110.3
2014-Apr-12 14:31N 54°24' E 011°52'1010.1
2014-Apr-12 13:33N 54°27' E 011°35'10 9.8
2014-Apr-12 12:33N 54°31' E 011°20'75 6.2
2014-Apr-12 00:33N 54°06' E 009°20'8 7.9
2014-Apr-11 23:33N 53°58' E 009°16'6 6.1
2014-Apr-11 22:33N 53°54' E 009°09'2 2.3
2014-Apr-11 21:34N 53°53' E 009°05'1 0.7
2014-Apr-11 20:33N 53°53' E 009°04'8 8.4
2014-Apr-11 19:33N 53°50' E 008°50'1211.8
2014-Apr-11 18:33N 53°58' E 008°35'1211.8
2014-Apr-11 17:33N 53°59' E 008°15'9 9.2
2014-Apr-11 16:33N 53°54' E 008°02'8 8.5
2014-Apr-11 15:33N 53°47' E 008°09'1110.9
2014-Apr-11 14:33N 53°40' E 008°23'1110.6
2014-Apr-11 13:33N 53°31' E 008°32'1211.8
2014-Apr-11 12:33N 53°19' E 008°29'10 9.7
2014-Apr-11 11:34N 53°10' E 008°36'5 5.2
2014-Apr-11 10:33N 53°07' E 008°43'0 0.2
2014-Apr-11 09:33N 53°07' E 008°43'0 0.2
2014-Apr-11 08:34N 53°07' E 008°43'0 0.0
2014-Apr-11 07:33N 53°07' E 008°43'0 0.0
2014-Apr-11 06:34N 53°07' E 008°43'0 0.0
2014-Apr-11 05:33N 53°07' E 008°43'0 0.0
2014-Apr-11 04:33N 53°07' E 008°43'0 0.0
2014-Apr-11 03:33N 53°08' E 008°43'0 0.0
2014-Apr-11 02:33N 53°08' E 008°43'0 0.0
2014-Apr-11 01:33N 53°08' E 008°43'0 0.0
2014-Apr-11 00:34N 53°08' E 008°43'0 0.0
2014-Apr-10 23:34N 53°08' E 008°43'0 0.0
2014-Apr-10 22:33N 53°08' E 008°43'0 0.0
2014-Apr-10 21:33N 53°08' E 008°43'0 0.0
2014-Apr-10 20:33N 53°08' E 008°43'0 0.0
2014-Apr-10 19:33N 53°07' E 008°43'0 0.0
2014-Apr-10 18:33N 53°07' E 008°43'0 0.0
2014-Apr-10 17:33N 53°07' E 008°43'0 0.0
2014-Apr-10 16:33N 53°07' E 008°43'0 0.0
2014-Apr-10 15:34N 53°07' E 008°43'0 0.0
2014-Apr-10 14:34N 53°07' E 008°43'0 0.0
2014-Apr-10 13:34N 53°07' E 008°43'0 0.0
2014-Apr-10 12:34N 53°07' E 008°43'0 0.0
2014-Apr-10 11:33N 53°07' E 008°43'0 0.0
2014-Apr-10 10:33N 53°07' E 008°43'0 0.0
2014-Apr-10 09:34N 53°07' E 008°43'0 0.0
2014-Apr-10 08:31N 53°07' E 008°43'0 0.0
2014-Apr-10 07:28N 53°07' E 008°43'0 0.0
2014-Apr-10 06:33N 53°07' E 008°43'0 0.0
2014-Apr-10 05:33N 53°07' E 008°43'0 0.0
2014-Apr-10 04:33N 53°07' E 008°43'0 0.0
2014-Apr-10 03:33N 53°07' E 008°43'0 0.0
2014-Apr-10 02:33N 53°07' E 008°43'0 0.0
2014-Apr-10 01:33N 53°07' E 008°43'0 0.0
2014-Apr-10 00:33N 53°07' E 008°43'0 0.0
2014-Apr-09 23:34N 53°07' E 008°43'0 0.0
2014-Apr-09 22:34N 53°07' E 008°43'0 0.0
2014-Apr-09 21:33N 53°07' E 008°43'0 0.0
2014-Apr-09 20:33N 53°07' E 008°43'0 0.0
2014-Apr-09 19:33N 53°07' E 008°43'0 0.0
2014-Apr-09 18:33N 53°07' E 008°43'0 0.0
2014-Apr-09 17:33N 53°07' E 008°43'0 0.0
2014-Apr-09 16:30N 53°07' E 008°43'0 0.0
2014-Apr-09 15:34N 53°07' E 008°43'0 0.0
2014-Apr-09 14:33N 53°07' E 008°43'0 0.0
2014-Apr-09 13:33N 53°07' E 008°43'0 0.0
2014-Apr-09 12:33N 53°07' E 008°43'0 0.0
2014-Apr-09 11:33N 53°07' E 008°43'0 0.0
2014-Apr-09 10:33N 53°07' E 008°43'  

Dump ship's entire track history

sailing weather and tide predictions

Kine — C6WT4 — position and weather